sensor_id;sensor_type;location;lat;lon;timestamp;temperature;humidity
59075;DHT22;44860;53.020;6.738;2022-10-01T00:01:09;12.00;99.90
59075;DHT22;44860;53.020;6.738;2022-10-01T00:03:35;12.00;99.90
59075;DHT22;44860;53.020;6.738;2022-10-01T00:06:04;12.00;99.90
59075;DHT22;44860;53.020;6.738;2022-10-01T00:08:31;11.90;99.90
59075;DHT22;44860;53.020;6.738;2022-10-01T00:10:57;11.90;99.90
59075;DHT22;44860;53.020;6.738;2022-10-01T00:13:28;11.90;99.90
59075;DHT22;44860;53.020;6.738;2022-10-01T00:15:57;11.90;99.90
59075;DHT22;44860;53.020;6.738;2022-10-01T00:18:24;11.80;99.90
59075;DHT22;44860;53.020;6.738;2022-10-01T00:20:50;11.80;99.90
59075;DHT22;44860;53.020;6.738;2022-10-01T00:23:16;11.80;99.90
59075;DHT22;44860;53.020;6.738;2022-10-01T00:25:43;11.80;99.90
59075;DHT22;44860;53.020;6.738;2022-10-01T00:28:09;11.80;99.90
59075;DHT22;44860;53.020;6.738;2022-10-01T00:30:36;11.70;99.90
59075;DHT22;44860;53.020;6.738;2022-10-01T00:33:02;11.70;99.90
59075;DHT22;44860;53.020;6.738;2022-10-01T00:35:28;11.70;99.90
59075;DHT22;44860;53.020;6.738;2022-10-01T00:37:53;11.70;99.90
59075;DHT22;44860;53.020;6.738;2022-10-01T00:40:20;11.60;99.90
59075;DHT22;44860;53.020;6.738;2022-10-01T00:42:46;11.60;99.90
59075;DHT22;44860;53.020;6.738;2022-10-01T00:45:13;11.60;99.90
59075;DHT22;44860;53.020;6.738;2022-10-01T00:47:59;11.60;99.90
59075;DHT22;44860;53.020;6.738;2022-10-01T00:50:33;11.60;99.90
59075;DHT22;44860;53.020;6.738;2022-10-01T00:53:03;11.60;99.90
59075;DHT22;44860;53.020;6.738;2022-10-01T00:55:39;11.60;99.90
59075;DHT22;44860;53.020;6.738;2022-10-01T00:58:07;11.60;99.90
59075;DHT22;44860;53.020;6.738;2022-10-01T01:00:36;11.60;99.90
59075;DHT22;44860;53.020;6.738;2022-10-01T01:03:04;11.50;99.90
59075;DHT22;44860;53.020;6.738;2022-10-01T01:05:30;11.60;99.90
59075;DHT22;44860;53.020;6.738;2022-10-01T01:07:56;11.50;99.90
59075;DHT22;44860;53.020;6.738;2022-10-01T01:16:35;11.50;99.90
59075;DHT22;44860;53.020;6.738;2022-10-01T01:22:00;11.50;99.90
59075;DHT22;44860;53.020;6.738;2022-10-01T01:30:04;11.40;99.90
59075;DHT22;44860;53.020;6.738;2022-10-01T01:35:07;11.40;99.90
59075;DHT22;44860;53.020;6.738;2022-10-01T01:37:40;11.40;99.90
59075;DHT22;44860;53.020;6.738;2022-10-01T01:40:08;11.40;99.90
59075;DHT22;44860;53.020;6.738;2022-10-01T01:42:36;11.40;99.90
59075;DHT22;44860;53.020;6.738;2022-10-01T01:45:07;11.40;99.90
59075;DHT22;44860;53.020;6.738;2022-10-01T01:47:35;11.40;99.90
59075;DHT22;44860;53.020;6.738;2022-10-01T01:50:02;11.40;99.90
59075;DHT22;44860;53.020;6.738;2022-10-01T01:52:29;11.40;99.90
59075;DHT22;44860;53.020;6.738;2022-10-01T01:54:56;11.40;99.90
59075;DHT22;44860;53.020;6.738;2022-10-01T01:57:22;11.40;99.90
59075;DHT22;44860;53.020;6.738;2022-10-01T01:59:48;11.50;99.90
59075;DHT22;44860;53.020;6.738;2022-10-01T02:02:25;11.40;99.90
59075;DHT22;44860;53.020;6.738;2022-10-01T02:04:55;11.40;99.90
59075;DHT22;44860;53.020;6.738;2022-10-01T02:08:01;11.40;99.90
59075;DHT22;44860;53.020;6.738;2022-10-01T02:11:02;11.40;99.90
59075;DHT22;44860;53.020;6.738;2022-10-01T02:16:27;11.30;99.90
59075;DHT22;44860;53.020;6.738;2022-10-01T02:19:04;11.30;99.90
59075;DHT22;44860;53.020;6.738;2022-10-01T02:27:09;11.30;99.90
59075;DHT22;44860;53.020;6.738;2022-10-01T02:29:37;11.40;99.90
59075;DHT22;44860;53.020;6.738;2022-10-01T02:32:04;11.30;99.90
59075;DHT22;44860;53.020;6.738;2022-10-01T02:34:30;11.30;99.90
59075;DHT22;44860;53.020;6.738;2022-10-01T02:36:58;11.40;99.90
59075;DHT22;44860;53.020;6.738;2022-10-01T02:39:26;11.40;99.90
59075;DHT22;44860;53.020;6.738;2022-10-01T02:41:54;11.40;99.90
59075;DHT22;44860;53.020;6.738;2022-10-01T02:44:30;11.30;99.90
59075;DHT22;44860;53.020;6.738;2022-10-01T02:47:05;11.40;99.90
59075;DHT22;44860;53.020;6.738;2022-10-01T02:49:32;11.30;99.90
59075;DHT22;44860;53.020;6.738;2022-10-01T02:55:16;11.40;99.90
59075;DHT22;44860;53.020;6.738;2022-10-01T02:57:43;11.30;99.90
59075;DHT22;44860;53.020;6.738;2022-10-01T03:00:15;11.40;99.90
59075;DHT22;44860;53.020;6.738;2022-10-01T03:02:42;11.30;99.90
59075;DHT22;44860;53.020;6.738;2022-10-01T03:05:08;11.30;99.90
59075;DHT22;44860;53.020;6.738;2022-10-01T03:07:34;11.40;99.90
59075;DHT22;44860;53.020;6.738;2022-10-01T03:10:04;11.40;99.90
59075;DHT22;44860;53.020;6.738;2022-10-01T03:12:30;11.40;99.90
59075;DHT22;44860;53.020;6.738;2022-10-01T03:14:56;11.40;99.90
59075;DHT22;44860;53.020;6.738;2022-10-01T03:17:22;11.40;99.90
59075;DHT22;44860;53.020;6.738;2022-10-01T03:19:48;11.50;99.90
59075;DHT22;44860;53.020;6.738;2022-10-01T03:22:16;11.50;99.90
59075;DHT22;44860;53.020;6.738;2022-10-01T03:24:50;11.50;99.90
59075;DHT22;44860;53.020;6.738;2022-10-01T03:27:17;11.50;99.90
59075;DHT22;44860;53.020;6.738;2022-10-01T03:29:43;11.50;99.90
59075;DHT22;44860;53.020;6.738;2022-10-01T03:32:09;11.50;99.90
59075;DHT22;44860;53.020;6.738;2022-10-01T03:34:35;11.60;99.90
59075;DHT22;44860;53.020;6.738;2022-10-01T03:37:01;11.50;99.90
59075;DHT22;44860;53.020;6.738;2022-10-01T03:39:26;11.50;99.90
59075;DHT22;44860;53.020;6.738;2022-10-01T03:41:52;11.50;99.90
59075;DHT22;44860;53.020;6.738;2022-10-01T03:44:18;11.50;99.90
59075;DHT22;44860;53.020;6.738;2022-10-01T03:46:43;11.50;99.90
59075;DHT22;44860;53.020;6.738;2022-10-01T03:49:09;11.50;99.90
59075;DHT22;44860;53.020;6.738;2022-10-01T03:51:35;11.50;99.90
59075;DHT22;44860;53.020;6.738;2022-10-01T03:54:02;11.50;99.90
59075;DHT22;44860;53.020;6.738;2022-10-01T03:56:27;11.60;99.90
59075;DHT22;44860;53.020;6.738;2022-10-01T03:58:53;11.60;99.90
59075;DHT22;44860;53.020;6.738;2022-10-01T04:01:19;11.60;99.90
59075;DHT22;44860;53.020;6.738;2022-10-01T04:03:45;11.60;99.90
59075;DHT22;44860;53.020;6.738;2022-10-01T04:06:11;11.60;99.90
59075;DHT22;44860;53.020;6.738;2022-10-01T04:08:37;11.60;99.90
59075;DHT22;44860;53.020;6.738;2022-10-01T04:11:04;11.60;99.90
59075;DHT22;44860;53.020;6.738;2022-10-01T04:13:30;11.60;99.90
59075;DHT22;44860;53.020;6.738;2022-10-01T04:15:56;11.60;99.90
59075;DHT22;44860;53.020;6.738;2022-10-01T04:18:22;11.60;99.90
59075;DHT22;44860;53.020;6.738;2022-10-01T04:20:47;11.60;99.90
59075;DHT22;44860;53.020;6.738;2022-10-01T04:23:13;11.50;99.90
59075;DHT22;44860;53.020;6.738;2022-10-01T04:25:39;11.60;99.90
59075;DHT22;44860;53.020;6.738;2022-10-01T04:28:07;11.60;99.90
59075;DHT22;44860;53.020;6.738;2022-10-01T04:30:35;11.60;99.90
59075;DHT22;44860;53.020;6.738;2022-10-01T04:33:01;11.60;99.90
59075;DHT22;44860;53.020;6.738;2022-10-01T04:35:27;11.60;99.90
59075;DHT22;44860;53.020;6.738;2022-10-01T04:38:06;11.60;99.90
59075;DHT22;44860;53.020;6.738;2022-10-01T04:40:34;11.60;99.90
59075;DHT22;44860;53.020;6.738;2022-10-01T04:43:03;11.60;99.90
59075;DHT22;44860;53.020;6.738;2022-10-01T04:45:29;11.60;99.90
59075;DHT22;44860;53.020;6.738;2022-10-01T04:47:56;11.60;99.90
59075;DHT22;44860;53.020;6.738;2022-10-01T04:50:24;11.60;99.90
59075;DHT22;44860;53.020;6.738;2022-10-01T04:52:51;11.60;99.90
59075;DHT22;44860;53.020;6.738;2022-10-01T04:55:17;11.70;99.90
59075;DHT22;44860;53.020;6.738;2022-10-01T04:57:43;11.70;99.90
59075;DHT22;44860;53.020;6.738;2022-10-01T05:00:18;11.70;99.90
59075;DHT22;44860;53.020;6.738;2022-10-01T05:02:45;11.60;99.90
59075;DHT22;44860;53.020;6.738;2022-10-01T05:05:11;11.70;99.90
59075;DHT22;44860;53.020;6.738;2022-10-01T05:07:38;11.70;99.90
59075;DHT22;44860;53.020;6.738;2022-10-01T05:10:05;11.70;99.90
59075;DHT22;44860;53.020;6.738;2022-10-01T05:12:31;11.70;99.90
59075;DHT22;44860;53.020;6.738;2022-10-01T05:14:57;11.70;99.90
59075;DHT22;44860;53.020;6.738;2022-10-01T05:17:22;11.70;99.90
59075;DHT22;44860;53.020;6.738;2022-10-01T05:19:48;11.70;99.90
59075;DHT22;44860;53.020;6.738;2022-10-01T05:22:15;11.80;99.90
59075;DHT22;44860;53.020;6.738;2022-10-01T05:24:41;11.70;99.90
59075;DHT22;44860;53.020;6.738;2022-10-01T05:27:08;11.70;99.90
59075;DHT22;44860;53.020;6.738;2022-10-01T05:29:36;11.80;99.90
59075;DHT22;44860;53.020;6.738;2022-10-01T05:32:03;11.80;99.90
59075;DHT22;44860;53.020;6.738;2022-10-01T05:34:28;11.80;99.90
59075;DHT22;44860;53.020;6.738;2022-10-01T05:36:54;11.80;99.90
59075;DHT22;44860;53.020;6.738;2022-10-01T05:39:20;11.80;99.90
59075;DHT22;44860;53.020;6.738;2022-10-01T05:41:45;11.80;99.90
59075;DHT22;44860;53.020;6.738;2022-10-01T05:44:11;11.90;99.90
59075;DHT22;44860;53.020;6.738;2022-10-01T05:46:37;11.90;99.90
59075;DHT22;44860;53.020;6.738;2022-10-01T05:49:02;11.90;99.90
59075;DHT22;44860;53.020;6.738;2022-10-01T05:51:28;11.90;99.90
59075;DHT22;44860;53.020;6.738;2022-10-01T05:53:55;11.90;99.90
59075;DHT22;44860;53.020;6.738;2022-10-01T05:56:24;11.90;99.90
59075;DHT22;44860;53.020;6.738;2022-10-01T05:58:50;11.90;99.90
59075;DHT22;44860;53.020;6.738;2022-10-01T06:01:15;11.90;99.90
59075;DHT22;44860;53.020;6.738;2022-10-01T06:03:41;12.00;99.90
59075;DHT22;44860;53.020;6.738;2022-10-01T06:06:08;11.90;99.90
59075;DHT22;44860;53.020;6.738;2022-10-01T06:08:35;12.00;99.90
59075;DHT22;44860;53.020;6.738;2022-10-01T06:11:02;12.00;99.90
59075;DHT22;44860;53.020;6.738;2022-10-01T06:13:28;12.00;99.90
59075;DHT22;44860;53.020;6.738;2022-10-01T06:15:54;12.10;99.90
59075;DHT22;44860;53.020;6.738;2022-10-01T06:18:20;12.10;99.90
59075;DHT22;44860;53.020;6.738;2022-10-01T06:20:45;12.10;99.90
59075;DHT22;44860;53.020;6.738;2022-10-01T06:23:12;12.10;99.90
59075;DHT22;44860;53.020;6.738;2022-10-01T06:25:39;12.10;99.90
59075;DHT22;44860;53.020;6.738;2022-10-01T06:28:08;12.20;99.90
59075;DHT22;44860;53.020;6.738;2022-10-01T06:30:36;12.20;99.90
59075;DHT22;44860;53.020;6.738;2022-10-01T06:33:13;12.20;99.90
59075;DHT22;44860;53.020;6.738;2022-10-01T06:35:43;12.20;99.90
59075;DHT22;44860;53.020;6.738;2022-10-01T06:38:10;12.20;99.90
59075;DHT22;44860;53.020;6.738;2022-10-01T06:40:36;12.20;99.90
59075;DHT22;44860;53.020;6.738;2022-10-01T06:43:02;12.20;99.90
59075;DHT22;44860;53.020;6.738;2022-10-01T06:45:29;12.30;99.90
59075;DHT22;44860;53.020;6.738;2022-10-01T06:47:57;12.30;99.90
59075;DHT22;44860;53.020;6.738;2022-10-01T06:50:24;12.30;99.90
59075;DHT22;44860;53.020;6.738;2022-10-01T06:52:50;12.30;99.90
59075;DHT22;44860;53.020;6.738;2022-10-01T06:55:17;12.40;99.90
59075;DHT22;44860;53.020;6.738;2022-10-01T06:57:43;12.50;99.90
59075;DHT22;44860;53.020;6.738;2022-10-01T07:00:10;12.40;99.90
59075;DHT22;44860;53.020;6.738;2022-10-01T07:02:36;12.40;99.90
59075;DHT22;44860;53.020;6.738;2022-10-01T07:05:01;12.50;99.90
59075;DHT22;44860;53.020;6.738;2022-10-01T07:07:31;12.50;99.90
59075;DHT22;44860;53.020;6.738;2022-10-01T07:10:00;12.50;99.90
59075;DHT22;44860;53.020;6.738;2022-10-01T07:12:26;12.60;99.90
59075;DHT22;44860;53.020;6.738;2022-10-01T07:14:53;12.60;99.90
59075;DHT22;44860;53.020;6.738;2022-10-01T07:17:19;12.60;99.90
59075;DHT22;44860;53.020;6.738;2022-10-01T07:19:45;12.60;99.90
59075;DHT22;44860;53.020;6.738;2022-10-01T07:22:11;12.70;99.90
59075;DHT22;44860;53.020;6.738;2022-10-01T07:24:37;12.70;99.90
59075;DHT22;44860;53.020;6.738;2022-10-01T07:27:05;12.70;99.90
59075;DHT22;44860;53.020;6.738;2022-10-01T07:29:31;12.80;99.90
59075;DHT22;44860;53.020;6.738;2022-10-01T07:31:57;12.80;99.90
59075;DHT22;44860;53.020;6.738;2022-10-01T07:34:27;12.80;99.90
59075;DHT22;44860;53.020;6.738;2022-10-01T07:36:53;12.80;99.90
59075;DHT22;44860;53.020;6.738;2022-10-01T07:39:21;12.80;99.90
59075;DHT22;44860;53.020;6.738;2022-10-01T07:41:47;12.80;99.90
59075;DHT22;44860;53.020;6.738;2022-10-01T07:44:12;12.80;99.90
59075;DHT22;44860;53.020;6.738;2022-10-01T07:46:38;12.80;99.90
59075;DHT22;44860;53.020;6.738;2022-10-01T07:49:04;12.90;99.90
59075;DHT22;44860;53.020;6.738;2022-10-01T07:51:30;12.90;99.90
59075;DHT22;44860;53.020;6.738;2022-10-01T07:53:56;12.80;99.90
59075;DHT22;44860;53.020;6.738;2022-10-01T07:56:24;12.90;99.90
59075;DHT22;44860;53.020;6.738;2022-10-01T07:58:56;12.90;99.90
59075;DHT22;44860;53.020;6.738;2022-10-01T08:01:24;13.00;99.90
59075;DHT22;44860;53.020;6.738;2022-10-01T08:03:50;13.00;99.90
59075;DHT22;44860;53.020;6.738;2022-10-01T08:06:20;13.00;99.90
59075;DHT22;44860;53.020;6.738;2022-10-01T08:08:46;13.00;99.90
59075;DHT22;44860;53.020;6.738;2022-10-01T08:11:12;13.10;99.90
59075;DHT22;44860;53.020;6.738;2022-10-01T08:13:44;13.10;99.90
59075;DHT22;44860;53.020;6.738;2022-10-01T08:16:11;13.20;99.90
59075;DHT22;44860;53.020;6.738;2022-10-01T08:18:36;13.20;99.90
59075;DHT22;44860;53.020;6.738;2022-10-01T08:21:04;13.30;99.90
59075;DHT22;44860;53.020;6.738;2022-10-01T08:23:30;13.40;99.90
59075;DHT22;44860;53.020;6.738;2022-10-01T08:26:05;13.40;99.90
59075;DHT22;44860;53.020;6.738;2022-10-01T08:28:33;13.50;99.90
59075;DHT22;44860;53.020;6.738;2022-10-01T08:31:02;13.50;99.90
59075;DHT22;44860;53.020;6.738;2022-10-01T08:33:31;13.50;99.90
59075;DHT22;44860;53.020;6.738;2022-10-01T08:36:01;13.60;99.90
59075;DHT22;44860;53.020;6.738;2022-10-01T08:38:27;13.70;99.90
59075;DHT22;44860;53.020;6.738;2022-10-01T08:40:53;13.70;99.90
59075;DHT22;44860;53.020;6.738;2022-10-01T08:43:36;13.80;99.90
59075;DHT22;44860;53.020;6.738;2022-10-01T08:46:13;13.90;99.90
59075;DHT22;44860;53.020;6.738;2022-10-01T08:48:55;14.00;99.90
59075;DHT22;44860;53.020;6.738;2022-10-01T08:56:46;14.20;99.90
59075;DHT22;44860;53.020;6.738;2022-10-01T09:01:57;14.30;99.90
59075;DHT22;44860;53.020;6.738;2022-10-01T09:04:24;14.40;99.90
59075;DHT22;44860;53.020;6.738;2022-10-01T09:07:02;14.50;99.90
59075;DHT22;44860;53.020;6.738;2022-10-01T09:18:38;14.80;99.90
59075;DHT22;44860;53.020;6.738;2022-10-01T09:21:00;14.90;99.90
59075;DHT22;44860;53.020;6.738;2022-10-01T09:23:28;15.00;99.90
59075;DHT22;44860;53.020;6.738;2022-10-01T09:25:55;15.00;99.90
59075;DHT22;44860;53.020;6.738;2022-10-01T09:33:30;15.10;99.90
59075;DHT22;44860;53.020;6.738;2022-10-01T09:36:15;15.10;99.90
59075;DHT22;44860;53.020;6.738;2022-10-01T09:38:52;15.20;99.90
59075;DHT22;44860;53.020;6.738;2022-10-01T09:41:21;15.30;99.90
59075;DHT22;44860;53.020;6.738;2022-10-01T09:43:46;15.30;99.90
59075;DHT22;44860;53.020;6.738;2022-10-01T09:46:14;15.40;99.90
59075;DHT22;44860;53.020;6.738;2022-10-01T09:48:48;15.40;99.90
59075;DHT22;44860;53.020;6.738;2022-10-01T09:51:43;15.40;99.90
59075;DHT22;44860;53.020;6.738;2022-10-01T09:54:20;15.50;99.90
59075;DHT22;44860;53.020;6.738;2022-10-01T09:56:53;15.50;99.90
59075;DHT22;44860;53.020;6.738;2022-10-01T10:02:31;15.60;99.90
59075;DHT22;44860;53.020;6.738;2022-10-01T10:04:59;15.60;99.90
59075;DHT22;44860;53.020;6.738;2022-10-01T10:07:25;15.70;99.90
59075;DHT22;44860;53.020;6.738;2022-10-01T10:09:51;15.80;99.90
59075;DHT22;44860;53.020;6.738;2022-10-01T10:12:27;15.90;99.90
59075;DHT22;44860;53.020;6.738;2022-10-01T10:15:06;15.90;99.90
59075;DHT22;44860;53.020;6.738;2022-10-01T10:17:33;15.90;99.90
59075;DHT22;44860;53.020;6.738;2022-10-01T10:20:09;15.80;99.90
59075;DHT22;44860;53.020;6.738;2022-10-01T10:22:35;15.70;99.90
59075;DHT22;44860;53.020;6.738;2022-10-01T10:25:11;15.60;99.90
59075;DHT22;44860;53.020;6.738;2022-10-01T10:27:50;15.60;99.90
59075;DHT22;44860;53.020;6.738;2022-10-01T10:30:23;15.60;99.90
59075;DHT22;44860;53.020;6.738;2022-10-01T10:32:52;15.40;99.90
59075;DHT22;44860;53.020;6.738;2022-10-01T10:35:23;15.30;99.90
59075;DHT22;44860;53.020;6.738;2022-10-01T10:37:52;15.10;99.90
59075;DHT22;44860;53.020;6.738;2022-10-01T10:40:40;15.00;99.90
59075;DHT22;44860;53.020;6.738;2022-10-01T10:43:20;14.80;99.90
59075;DHT22;44860;53.020;6.738;2022-10-01T10:45:50;14.60;99.90
59075;DHT22;44860;53.020;6.738;2022-10-01T10:48:22;14.50;99.90
59075;DHT22;44860;53.020;6.738;2022-10-01T10:50:49;14.40;99.90
59075;DHT22;44860;53.020;6.738;2022-10-01T10:53:24;14.40;99.90
59075;DHT22;44860;53.020;6.738;2022-10-01T10:55:59;14.30;99.90
59075;DHT22;44860;53.020;6.738;2022-10-01T10:58:28;14.20;99.90
59075;DHT22;44860;53.020;6.738;2022-10-01T11:00:57;14.20;99.90
59075;DHT22;44860;53.020;6.738;2022-10-01T11:03:26;14.10;99.90
59075;DHT22;44860;53.020;6.738;2022-10-01T11:05:53;14.00;99.90
59075;DHT22;44860;53.020;6.738;2022-10-01T11:08:24;14.00;99.90
59075;DHT22;44860;53.020;6.738;2022-10-01T11:13:45;13.90;99.90
59075;DHT22;44860;53.020;6.738;2022-10-01T11:25:16;13.80;99.90
59075;DHT22;44860;53.020;6.738;2022-10-01T11:28:02;13.90;99.90
59075;DHT22;44860;53.020;6.738;2022-10-01T11:30:35;13.80;99.90
59075;DHT22;44860;53.020;6.738;2022-10-01T11:38:55;14.10;99.90
59075;DHT22;44860;53.020;6.738;2022-10-01T11:41:39;14.20;99.90
59075;DHT22;44860;53.020;6.738;2022-10-01T11:49:51;14.40;99.90
59075;DHT22;44860;53.020;6.738;2022-10-01T11:52:42;14.50;99.90
59075;DHT22;44860;53.020;6.738;2022-10-01T11:55:13;14.60;99.90
59075;DHT22;44860;53.020;6.738;2022-10-01T11:58:12;14.70;99.90
59075;DHT22;44860;53.020;6.738;2022-10-01T12:01:05;14.80;99.90
59075;DHT22;44860;53.020;6.738;2022-10-01T12:04:17;14.90;99.90
59075;DHT22;44860;53.020;6.738;2022-10-01T12:09:34;15.10;99.90
59075;DHT22;44860;53.020;6.738;2022-10-01T12:12:07;15.20;99.90
59075;DHT22;44860;53.020;6.738;2022-10-01T12:20:29;15.30;99.90
59075;DHT22;44860;53.020;6.738;2022-10-01T12:22:58;15.30;99.90
59075;DHT22;44860;53.020;6.738;2022-10-01T12:25:49;15.20;99.90
59075;DHT22;44860;53.020;6.738;2022-10-01T12:28:22;15.20;99.90
59075;DHT22;44860;53.020;6.738;2022-10-01T12:31:08;15.20;99.90
59075;DHT22;44860;53.020;6.738;2022-10-01T12:33:46;15.20;99.90
59075;DHT22;44860;53.020;6.738;2022-10-01T12:42:46;15.00;99.90
59075;DHT22;44860;53.020;6.738;2022-10-01T12:44:57;15.00;99.90
59075;DHT22;44860;53.020;6.738;2022-10-01T12:55:50;15.30;99.90
59075;DHT22;44860;53.020;6.738;2022-10-01T13:01:58;15.60;99.90
59075;DHT22;44860;53.020;6.738;2022-10-01T13:04:55;15.80;99.90
59075;DHT22;44860;53.020;6.738;2022-10-01T13:07:48;15.90;99.90
59075;DHT22;44860;53.020;6.738;2022-10-01T13:15:35;15.90;99.90
59075;DHT22;44860;53.020;6.738;2022-10-01T13:23:41;16.10;99.90
59075;DHT22;44860;53.020;6.738;2022-10-01T13:26:13;16.20;99.90
59075;DHT22;44860;53.020;6.738;2022-10-01T13:29:02;16.20;99.90
59075;DHT22;44860;53.020;6.738;2022-10-01T13:31:37;16.20;99.90
59075;DHT22;44860;53.020;6.738;2022-10-01T13:34:20;16.00;99.90
59075;DHT22;44860;53.020;6.738;2022-10-01T13:36:48;15.80;99.90
59075;DHT22;44860;53.020;6.738;2022-10-01T13:39:23;15.50;99.90
59075;DHT22;44860;53.020;6.738;2022-10-01T13:41:56;15.40;99.90
59075;DHT22;44860;53.020;6.738;2022-10-01T13:44:26;15.20;99.90
59075;DHT22;44860;53.020;6.738;2022-10-01T13:47:04;15.10;99.90
59075;DHT22;44860;53.020;6.738;2022-10-01T13:49:32;15.10;99.90
59075;DHT22;44860;53.020;6.738;2022-10-01T13:51:59;15.20;99.90
59075;DHT22;44860;53.020;6.738;2022-10-01T13:54:43;15.20;99.90
59075;DHT22;44860;53.020;6.738;2022-10-01T13:57:36;15.30;99.90
59075;DHT22;44860;53.020;6.738;2022-10-01T14:02:40;15.70;99.90
59075;DHT22;44860;53.020;6.738;2022-10-01T14:05:27;15.80;99.90
59075;DHT22;44860;53.020;6.738;2022-10-01T14:08:02;16.00;99.90
59075;DHT22;44860;53.020;6.738;2022-10-01T14:10:41;16.10;99.90
59075;DHT22;44860;53.020;6.738;2022-10-01T14:13:29;16.20;99.90
59075;DHT22;44860;53.020;6.738;2022-10-01T14:16:15;16.30;99.90
59075;DHT22;44860;53.020;6.738;2022-10-01T14:18:43;16.40;99.90
59075;DHT22;44860;53.020;6.738;2022-10-01T14:24:35;16.30;99.90
59075;DHT22;44860;53.020;6.738;2022-10-01T14:35:37;16.00;99.90
59075;DHT22;44860;53.020;6.738;2022-10-01T14:38:16;15.90;99.90
59075;DHT22;44860;53.020;6.738;2022-10-01T14:40:45;15.90;99.90
59075;DHT22;44860;53.020;6.738;2022-10-01T14:43:21;16.00;99.90
59075;DHT22;44860;53.020;6.738;2022-10-01T14:45:54;16.20;99.90
59075;DHT22;44860;53.020;6.738;2022-10-01T14:48:20;16.40;99.90
59075;DHT22;44860;53.020;6.738;2022-10-01T14:50:51;16.40;99.90
59075;DHT22;44860;53.020;6.738;2022-10-01T14:53:20;16.40;99.90
59075;DHT22;44860;53.020;6.738;2022-10-01T14:55:47;16.40;99.90
59075;DHT22;44860;53.020;6.738;2022-10-01T14:58:56;16.30;99.90
59075;DHT22;44860;53.020;6.738;2022-10-01T15:01:22;16.20;99.90
59075;DHT22;44860;53.020;6.738;2022-10-01T15:03:50;16.10;99.90
59075;DHT22;44860;53.020;6.738;2022-10-01T15:06:19;16.00;99.90
59075;DHT22;44860;53.020;6.738;2022-10-01T15:08:47;15.90;99.90
59075;DHT22;44860;53.020;6.738;2022-10-01T15:11:17;15.90;99.90
59075;DHT22;44860;53.020;6.738;2022-10-01T15:13:45;15.90;99.90
59075;DHT22;44860;53.020;6.738;2022-10-01T15:16:17;15.90;99.90
59075;DHT22;44860;53.020;6.738;2022-10-01T15:18:46;16.10;99.90
59075;DHT22;44860;53.020;6.738;2022-10-01T15:22:07;16.20;99.90
59075;DHT22;44860;53.020;6.738;2022-10-01T15:24:29;16.30;99.90
59075;DHT22;44860;53.020;6.738;2022-10-01T15:26:58;16.30;99.90
59075;DHT22;44860;53.020;6.738;2022-10-01T15:29:24;16.30;99.90
59075;DHT22;44860;53.020;6.738;2022-10-01T15:31:50;16.30;99.90
59075;DHT22;44860;53.020;6.738;2022-10-01T15:34:18;16.40;99.90
59075;DHT22;44860;53.020;6.738;2022-10-01T15:36:46;16.40;99.90
59075;DHT22;44860;53.020;6.738;2022-10-01T15:39:29;16.30;99.90
59075;DHT22;44860;53.020;6.738;2022-10-01T15:41:56;16.30;99.90
59075;DHT22;44860;53.020;6.738;2022-10-01T15:44:44;16.20;99.90
59075;DHT22;44860;53.020;6.738;2022-10-01T15:47:23;16.20;99.90
59075;DHT22;44860;53.020;6.738;2022-10-01T15:53:05;16.00;99.90
59075;DHT22;44860;53.020;6.738;2022-10-01T15:55:44;15.90;99.90
59075;DHT22;44860;53.020;6.738;2022-10-01T15:58:29;15.80;99.90
59075;DHT22;44860;53.020;6.738;2022-10-01T16:01:08;15.70;99.90
59075;DHT22;44860;53.020;6.738;2022-10-01T16:03:37;15.60;99.90
59075;DHT22;44860;53.020;6.738;2022-10-01T16:06:06;15.60;99.90
59075;DHT22;44860;53.020;6.738;2022-10-01T16:08:50;15.60;99.90
59075;DHT22;44860;53.020;6.738;2022-10-01T16:11:22;15.50;99.90
59075;DHT22;44860;53.020;6.738;2022-10-01T16:16:46;15.40;99.90
59075;DHT22;44860;53.020;6.738;2022-10-01T16:19:29;15.40;99.90
59075;DHT22;44860;53.020;6.738;2022-10-01T16:24:47;15.30;99.90
59075;DHT22;44860;53.020;6.738;2022-10-01T16:27:18;15.30;99.90
59075;DHT22;44860;53.020;6.738;2022-10-01T16:29:55;15.20;99.90
59075;DHT22;44860;53.020;6.738;2022-10-01T16:32:22;15.20;99.90
59075;DHT22;44860;53.020;6.738;2022-10-01T16:34:47;15.10;99.90
59075;DHT22;44860;53.020;6.738;2022-10-01T16:37:14;15.10;99.90
59075;DHT22;44860;53.020;6.738;2022-10-01T16:39:40;15.00;99.90
59075;DHT22;44860;53.020;6.738;2022-10-01T16:42:06;15.00;99.90
59075;DHT22;44860;53.020;6.738;2022-10-01T16:44:33;14.90;99.90
59075;DHT22;44860;53.020;6.738;2022-10-01T16:47:00;14.90;99.90
59075;DHT22;44860;53.020;6.738;2022-10-01T16:49:25;14.80;99.90
59075;DHT22;44860;53.020;6.738;2022-10-01T16:51:52;14.80;99.90
59075;DHT22;44860;53.020;6.738;2022-10-01T16:54:21;14.70;99.90
59075;DHT22;44860;53.020;6.738;2022-10-01T16:56:48;14.70;99.90
59075;DHT22;44860;53.020;6.738;2022-10-01T16:59:15;14.60;99.90
59075;DHT22;44860;53.020;6.738;2022-10-01T17:01:41;14.60;99.90
59075;DHT22;44860;53.020;6.738;2022-10-01T17:04:10;14.50;99.90
59075;DHT22;44860;53.020;6.738;2022-10-01T17:06:36;14.50;99.90
59075;DHT22;44860;53.020;6.738;2022-10-01T17:09:01;14.40;99.90
59075;DHT22;44860;53.020;6.738;2022-10-01T17:11:27;14.40;99.90
59075;DHT22;44860;53.020;6.738;2022-10-01T17:13:54;14.40;99.90
59075;DHT22;44860;53.020;6.738;2022-10-01T17:16:20;14.30;99.90
59075;DHT22;44860;53.020;6.738;2022-10-01T17:18:45;14.30;99.90
59075;DHT22;44860;53.020;6.738;2022-10-01T17:21:11;14.20;99.90
59075;DHT22;44860;53.020;6.738;2022-10-01T17:23:37;14.20;99.90
59075;DHT22;44860;53.020;6.738;2022-10-01T17:26:06;14.20;99.90
59075;DHT22;44860;53.020;6.738;2022-10-01T17:28:33;14.10;99.90
59075;DHT22;44860;53.020;6.738;2022-10-01T17:30:58;14.10;99.90
59075;DHT22;44860;53.020;6.738;2022-10-01T17:33:24;14.10;99.90
59075;DHT22;44860;53.020;6.738;2022-10-01T17:35:51;14.00;99.90
59075;DHT22;44860;53.020;6.738;2022-10-01T17:38:20;14.00;99.90
59075;DHT22;44860;53.020;6.738;2022-10-01T17:40:47;14.00;99.90
59075;DHT22;44860;53.020;6.738;2022-10-01T17:43:14;14.00;99.90
59075;DHT22;44860;53.020;6.738;2022-10-01T17:45:41;13.90;99.90
59075;DHT22;44860;53.020;6.738;2022-10-01T17:48:08;13.90;99.90
59075;DHT22;44860;53.020;6.738;2022-10-01T17:50:34;13.80;99.90
59075;DHT22;44860;53.020;6.738;2022-10-01T17:53:00;13.80;99.90
59075;DHT22;44860;53.020;6.738;2022-10-01T17:55:26;13.80;99.90
59075;DHT22;44860;53.020;6.738;2022-10-01T17:57:52;13.80;99.90
59075;DHT22;44860;53.020;6.738;2022-10-01T18:00:18;13.70;99.90
59075;DHT22;44860;53.020;6.738;2022-10-01T18:02:44;13.70;99.90
59075;DHT22;44860;53.020;6.738;2022-10-01T18:05:11;13.70;99.90
59075;DHT22;44860;53.020;6.738;2022-10-01T18:07:39;13.60;99.90